sensor_id;sensor_type;location;lat;lon;timestamp;P1;durP1;ratioP1;P2;durP2;ratioP2
15679;SDS011;15488;48.114;11.532;2023-08-24T00:01:11;7.38;;;6.53;;
15679;SDS011;15488;48.114;11.532;2023-08-24T00:03:38;7.03;;;6.32;;
15679;SDS011;15488;48.114;11.532;2023-08-24T00:06:06;7.47;;;6.65;;
15679;SDS011;15488;48.114;11.532;2023-08-24T00:08:34;6.95;;;6.30;;
15679;SDS011;15488;48.114;11.532;2023-08-24T00:11:02;7.13;;;6.43;;
15679;SDS011;15488;48.114;11.532;2023-08-24T00:13:32;7.20;;;6.50;;
15679;SDS011;15488;48.114;11.532;2023-08-24T00:15:59;7.00;;;6.30;;
15679;SDS011;15488;48.114;11.532;2023-08-24T00:18:27;7.82;;;6.75;;
15679;SDS011;15488;48.114;11.532;2023-08-24T00:20:54;8.73;;;7.93;;
15679;SDS011;15488;48.114;11.532;2023-08-24T00:23:22;8.18;;;7.47;;
15679;SDS011;15488;48.114;11.532;2023-08-24T00:25:49;7.32;;;6.63;;
15679;SDS011;15488;48.114;11.532;2023-08-24T00:28:17;9.63;;;8.75;;
15679;SDS011;15488;48.114;11.532;2023-08-24T00:30:46;12.80;;;10.40;;
15679;SDS011;15488;48.114;11.532;2023-08-24T00:33:13;11.68;;;10.45;;
15679;SDS011;15488;48.114;11.532;2023-08-24T00:35:40;8.82;;;8.05;;
15679;SDS011;15488;48.114;11.532;2023-08-24T00:38:08;8.18;;;7.57;;
15679;SDS011;15488;48.114;11.532;2023-08-24T00:40:35;8.00;;;7.20;;
15679;SDS011;15488;48.114;11.532;2023-08-24T00:43:04;8.32;;;7.47;;
15679;SDS011;15488;48.114;11.532;2023-08-24T00:45:32;7.13;;;6.47;;
15679;SDS011;15488;48.114;11.532;2023-08-24T00:48:02;7.45;;;6.78;;
15679;SDS011;15488;48.114;11.532;2023-08-24T00:50:30;9.27;;;8.48;;
15679;SDS011;15488;48.114;11.532;2023-08-24T00:52:58;13.15;;;11.85;;
15679;SDS011;15488;48.114;11.532;2023-08-24T00:55:25;10.23;;;9.32;;
15679;SDS011;15488;48.114;11.532;2023-08-24T00:57:54;8.45;;;7.65;;
15679;SDS011;15488;48.114;11.532;2023-08-24T01:00:22;8.50;;;7.65;;
15679;SDS011;15488;48.114;11.532;2023-08-24T01:02:50;10.05;;;9.15;;
15679;SDS011;15488;48.114;11.532;2023-08-24T01:05:19;10.32;;;9.13;;
15679;SDS011;15488;48.114;11.532;2023-08-24T01:07:46;9.52;;;8.63;;
15679;SDS011;15488;48.114;11.532;2023-08-24T01:10:14;8.07;;;7.32;;
15679;SDS011;15488;48.114;11.532;2023-08-24T01:12:44;7.88;;;7.15;;
15679;SDS011;15488;48.114;11.532;2023-08-24T01:15:19;8.00;;;7.20;;
15679;SDS011;15488;48.114;11.532;2023-08-24T01:17:53;7.93;;;7.18;;
15679;SDS011;15488;48.114;11.532;2023-08-24T01:20:26;7.47;;;6.85;;
15679;SDS011;15488;48.114;11.532;2023-08-24T01:22:55;8.38;;;7.13;;
15679;SDS011;15488;48.114;11.532;2023-08-24T01:25:32;7.43;;;6.70;;
15679;SDS011;15488;48.114;11.532;2023-08-24T01:28:05;7.38;;;6.78;;
15679;SDS011;15488;48.114;11.532;2023-08-24T01:30:34;8.00;;;7.20;;
15679;SDS011;15488;48.114;11.532;2023-08-24T01:33:02;8.15;;;7.40;;
15679;SDS011;15488;48.114;11.532;2023-08-24T01:35:30;8.32;;;7.63;;
15679;SDS011;15488;48.114;11.532;2023-08-24T01:37:58;7.45;;;6.85;;
15679;SDS011;15488;48.114;11.532;2023-08-24T01:40:30;7.95;;;7.25;;
15679;SDS011;15488;48.114;11.532;2023-08-24T01:43:07;8.32;;;7.57;;
15679;SDS011;15488;48.114;11.532;2023-08-24T01:45:36;8.02;;;7.25;;
15679;SDS011;15488;48.114;11.532;2023-08-24T01:48:04;8.20;;;7.40;;
15679;SDS011;15488;48.114;11.532;2023-08-24T01:50:33;8.38;;;7.68;;
15679;SDS011;15488;48.114;11.532;2023-08-24T01:53:02;8.18;;;7.43;;
15679;SDS011;15488;48.114;11.532;2023-08-24T01:55:30;8.32;;;7.63;;
15679;SDS011;15488;48.114;11.532;2023-08-24T01:57:57;9.15;;;8.35;;
15679;SDS011;15488;48.114;11.532;2023-08-24T02:00:27;8.75;;;7.95;;
15679;SDS011;15488;48.114;11.532;2023-08-24T02:02:55;8.98;;;8.02;;
15679;SDS011;15488;48.114;11.532;2023-08-24T02:05:22;8.63;;;7.82;;
15679;SDS011;15488;48.114;11.532;2023-08-24T02:07:52;8.23;;;7.55;;
15679;SDS011;15488;48.114;11.532;2023-08-24T02:10:20;8.27;;;7.57;;
15679;SDS011;15488;48.114;11.532;2023-08-24T02:12:47;7.97;;;7.25;;
15679;SDS011;15488;48.114;11.532;2023-08-24T02:15:15;8.45;;;7.53;;
15679;SDS011;15488;48.114;11.532;2023-08-24T02:17:44;8.60;;;7.80;;
15679;SDS011;15488;48.114;11.532;2023-08-24T02:20:11;9.82;;;8.80;;
15679;SDS011;15488;48.114;11.532;2023-08-24T02:22:39;8.90;;;8.00;;
15679;SDS011;15488;48.114;11.532;2023-08-24T02:25:06;8.95;;;8.25;;
15679;SDS011;15488;48.114;11.532;2023-08-24T02:27:36;8.90;;;8.00;;
15679;SDS011;15488;48.114;11.532;2023-08-24T02:30:04;8.82;;;8.05;;
15679;SDS011;15488;48.114;11.532;2023-08-24T02:32:32;9.25;;;8.38;;
15679;SDS011;15488;48.114;11.532;2023-08-24T02:35:01;8.70;;;8.00;;
15679;SDS011;15488;48.114;11.532;2023-08-24T02:37:28;8.45;;;7.75;;
15679;SDS011;15488;48.114;11.532;2023-08-24T02:39:56;9.27;;;8.32;;
15679;SDS011;15488;48.114;11.532;2023-08-24T02:42:23;9.00;;;8.20;;
15679;SDS011;15488;48.114;11.532;2023-08-24T02:44:51;9.25;;;8.35;;
15679;SDS011;15488;48.114;11.532;2023-08-24T02:47:18;9.32;;;8.52;;
15679;SDS011;15488;48.114;11.532;2023-08-24T02:49:46;9.40;;;8.55;;
15679;SDS011;15488;48.114;11.532;2023-08-24T02:52:14;9.10;;;8.30;;
15679;SDS011;15488;48.114;11.532;2023-08-24T02:54:42;9.40;;;8.45;;
15679;SDS011;15488;48.114;11.532;2023-08-24T02:57:09;9.90;;;8.98;;
15679;SDS011;15488;48.114;11.532;2023-08-24T02:59:37;9.02;;;8.23;;
15679;SDS011;15488;48.114;11.532;2023-08-24T03:02:04;10.23;;;8.23;;
15679;SDS011;15488;48.114;11.532;2023-08-24T03:04:32;9.45;;;8.65;;
15679;SDS011;15488;48.114;11.532;2023-08-24T03:06:59;9.27;;;8.48;;
15679;SDS011;15488;48.114;11.532;2023-08-24T03:09:28;9.30;;;8.50;;
15679;SDS011;15488;48.114;11.532;2023-08-24T03:11:55;9.52;;;8.70;;
15679;SDS011;15488;48.114;11.532;2023-08-24T03:14:23;9.55;;;8.65;;
15679;SDS011;15488;48.114;11.532;2023-08-24T03:16:50;9.98;;;9.00;;
15679;SDS011;15488;48.114;11.532;2023-08-24T03:19:18;9.38;;;8.57;;
15679;SDS011;15488;48.114;11.532;2023-08-24T03:21:45;9.68;;;8.85;;
15679;SDS011;15488;48.114;11.532;2023-08-24T03:24:12;9.63;;;8.52;;
15679;SDS011;15488;48.114;11.532;2023-08-24T03:26:41;10.02;;;9.13;;
15679;SDS011;15488;48.114;11.532;2023-08-24T03:29:09;9.70;;;8.80;;
15679;SDS011;15488;48.114;11.532;2023-08-24T03:31:36;9.55;;;8.70;;
15679;SDS011;15488;48.114;11.532;2023-08-24T03:34:03;10.35;;;9.35;;
15679;SDS011;15488;48.114;11.532;2023-08-24T03:36:31;9.13;;;8.43;;
15679;SDS011;15488;48.114;11.532;2023-08-24T03:38:58;11.68;;;8.80;;
15679;SDS011;15488;48.114;11.532;2023-08-24T03:41:26;9.40;;;8.50;;
15679;SDS011;15488;48.114;11.532;2023-08-24T03:43:55;12.30;;;8.95;;
15679;SDS011;15488;48.114;11.532;2023-08-24T03:46:22;9.43;;;8.50;;
15679;SDS011;15488;48.114;11.532;2023-08-24T03:48:49;9.70;;;8.90;;
15679;SDS011;15488;48.114;11.532;2023-08-24T03:51:17;9.52;;;8.63;;
15679;SDS011;15488;48.114;11.532;2023-08-24T03:53:44;9.75;;;8.85;;
15679;SDS011;15488;48.114;11.532;2023-08-24T03:56:12;9.07;;;8.38;;
15679;SDS011;15488;48.114;11.532;2023-08-24T03:58:39;9.45;;;8.63;;
15679;SDS011;15488;48.114;11.532;2023-08-24T04:01:11;9.38;;;8.55;;
15679;SDS011;15488;48.114;11.532;2023-08-24T04:03:38;11.07;;;9.23;;
15679;SDS011;15488;48.114;11.532;2023-08-24T04:06:06;9.13;;;8.43;;
15679;SDS011;15488;48.114;11.532;2023-08-24T04:08:33;9.23;;;8.32;;
15679;SDS011;15488;48.114;11.532;2023-08-24T04:11:01;9.55;;;8.65;;
15679;SDS011;15488;48.114;11.532;2023-08-24T04:13:28;9.25;;;8.45;;
15679;SDS011;15488;48.114;11.532;2023-08-24T04:15:56;9.05;;;8.35;;
15679;SDS011;15488;48.114;11.532;2023-08-24T04:18:25;9.45;;;8.40;;
15679;SDS011;15488;48.114;11.532;2023-08-24T04:20:52;9.43;;;8.52;;
15679;SDS011;15488;48.114;11.532;2023-08-24T04:23:23;9.45;;;8.57;;
15679;SDS011;15488;48.114;11.532;2023-08-24T04:25:51;9.13;;;8.23;;
15679;SDS011;15488;48.114;11.532;2023-08-24T04:28:19;9.38;;;8.57;;
15679;SDS011;15488;48.114;11.532;2023-08-24T04:30:51;9.60;;;8.75;;
15679;SDS011;15488;48.114;11.532;2023-08-24T04:33:19;9.00;;;8.18;;
15679;SDS011;15488;48.114;11.532;2023-08-24T04:35:48;9.60;;;8.80;;
15679;SDS011;15488;48.114;11.532;2023-08-24T04:38:16;9.98;;;9.15;;
15679;SDS011;15488;48.114;11.532;2023-08-24T04:40:45;10.23;;;9.32;;
15679;SDS011;15488;48.114;11.532;2023-08-24T04:43:15;10.95;;;9.85;;
15679;SDS011;15488;48.114;11.532;2023-08-24T04:45:43;9.90;;;9.00;;
15679;SDS011;15488;48.114;11.532;2023-08-24T04:48:12;9.65;;;8.75;;
15679;SDS011;15488;48.114;11.532;2023-08-24T04:50:39;9.50;;;8.70;;
15679;SDS011;15488;48.114;11.532;2023-08-24T04:53:09;9.18;;;8.38;;
15679;SDS011;15488;48.114;11.532;2023-08-24T04:55:37;10.57;;;9.57;;
15679;SDS011;15488;48.114;11.532;2023-08-24T04:58:05;9.80;;;8.80;;
15679;SDS011;15488;48.114;11.532;2023-08-24T05:00:32;9.70;;;8.75;;
15679;SDS011;15488;48.114;11.532;2023-08-24T05:03:00;9.95;;;9.02;;
15679;SDS011;15488;48.114;11.532;2023-08-24T05:05:28;10.85;;;9.45;;
15679;SDS011;15488;48.114;11.532;2023-08-24T05:07:56;9.60;;;8.65;;
15679;SDS011;15488;48.114;11.532;2023-08-24T05:10:25;10.02;;;9.23;;
15679;SDS011;15488;48.114;11.532;2023-08-24T05:12:56;9.88;;;8.98;;
15679;SDS011;15488;48.114;11.532;2023-08-24T05:15:23;10.05;;;9.20;;
15679;SDS011;15488;48.114;11.532;2023-08-24T05:17:51;10.10;;;9.15;;
15679;SDS011;15488;48.114;11.532;2023-08-24T05:20:21;10.40;;;9.40;;
15679;SDS011;15488;48.114;11.532;2023-08-24T05:22:48;9.43;;;8.63;;
15679;SDS011;15488;48.114;11.532;2023-08-24T05:25:16;10.55;;;9.45;;
15679;SDS011;15488;48.114;11.532;2023-08-24T05:27:45;11.45;;;9.30;;
15679;SDS011;15488;48.114;11.532;2023-08-24T05:30:12;9.90;;;9.00;;
15679;SDS011;15488;48.114;11.532;2023-08-24T05:32:40;11.18;;;10.10;;
15679;SDS011;15488;48.114;11.532;2023-08-24T05:35:08;10.90;;;9.88;;
15679;SDS011;15488;48.114;11.532;2023-08-24T05:37:37;10.38;;;9.40;;
15679;SDS011;15488;48.114;11.532;2023-08-24T05:40:05;9.70;;;8.80;;
15679;SDS011;15488;48.114;11.532;2023-08-24T05:42:33;9.68;;;8.60;;
15679;SDS011;15488;48.114;11.532;2023-08-24T05:45:03;10.05;;;9.15;;
15679;SDS011;15488;48.114;11.532;2023-08-24T05:47:31;10.27;;;9.38;;
15679;SDS011;15488;48.114;11.532;2023-08-24T05:49:58;10.63;;;9.52;;
15679;SDS011;15488;48.114;11.532;2023-08-24T05:52:26;10.85;;;9.77;;
15679;SDS011;15488;48.114;11.532;2023-08-24T05:54:53;10.48;;;9.40;;
15679;SDS011;15488;48.114;11.532;2023-08-24T05:57:21;11.10;;;9.65;;
15679;SDS011;15488;48.114;11.532;2023-08-24T05:59:48;10.80;;;9.70;;
15679;SDS011;15488;48.114;11.532;2023-08-24T06:02:17;9.95;;;9.02;;
15679;SDS011;15488;48.114;11.532;2023-08-24T06:04:45;10.27;;;9.23;;
15679;SDS011;15488;48.114;11.532;2023-08-24T06:07:15;9.95;;;8.95;;
15679;SDS011;15488;48.114;11.532;2023-08-24T06:09:43;10.30;;;9.45;;
15679;SDS011;15488;48.114;11.532;2023-08-24T06:12:11;11.73;;;10.05;;
15679;SDS011;15488;48.114;11.532;2023-08-24T06:14:38;12.80;;;11.60;;
15679;SDS011;15488;48.114;11.532;2023-08-24T06:17:05;10.32;;;9.32;;
15679;SDS011;15488;48.114;11.532;2023-08-24T06:19:34;11.02;;;9.93;;
15679;SDS011;15488;48.114;11.532;2023-08-24T06:22:02;12.88;;;10.40;;
15679;SDS011;15488;48.114;11.532;2023-08-24T06:24:29;10.70;;;9.68;;
15679;SDS011;15488;48.114;11.532;2023-08-24T06:43:51;10.05;;;9.15;;
15679;SDS011;15488;48.114;11.532;2023-08-24T06:46:20;10.90;;;8.98;;
15679;SDS011;15488;48.114;11.532;2023-08-24T06:48:48;9.75;;;8.75;;
15679;SDS011;15488;48.114;11.532;2023-08-24T06:51:15;9.65;;;8.65;;
15679;SDS011;15488;48.114;11.532;2023-08-24T06:53:43;10.82;;;9.30;;
15679;SDS011;15488;48.114;11.532;2023-08-24T06:56:12;12.98;;;11.57;;
15679;SDS011;15488;48.114;11.532;2023-08-24T06:58:40;10.40;;;9.43;;
15679;SDS011;15488;48.114;11.532;2023-08-24T07:01:09;9.32;;;8.43;;
15679;SDS011;15488;48.114;11.532;2023-08-24T07:03:37;9.75;;;8.65;;
15679;SDS011;15488;48.114;11.532;2023-08-24T07:06:07;9.45;;;8.52;;
15679;SDS011;15488;48.114;11.532;2023-08-24T07:08:37;9.20;;;8.30;;
15679;SDS011;15488;48.114;11.532;2023-08-24T07:11:04;9.15;;;8.23;;
15679;SDS011;15488;48.114;11.532;2023-08-24T07:13:32;9.57;;;8.73;;
15679;SDS011;15488;48.114;11.532;2023-08-24T07:15:59;10.43;;;9.27;;
15679;SDS011;15488;48.114;11.532;2023-08-24T07:18:29;11.05;;;9.95;;
15679;SDS011;15488;48.114;11.532;2023-08-24T07:20:56;10.27;;;8.38;;
15679;SDS011;15488;48.114;11.532;2023-08-24T07:23:24;9.15;;;8.30;;
15679;SDS011;15488;48.114;11.532;2023-08-24T07:25:52;9.30;;;8.40;;
15679;SDS011;15488;48.114;11.532;2023-08-24T07:28:19;9.15;;;8.25;;
15679;SDS011;15488;48.114;11.532;2023-08-24T07:30:47;9.57;;;8.68;;
15679;SDS011;15488;48.114;11.532;2023-08-24T07:33:14;8.93;;;8.13;;
15679;SDS011;15488;48.114;11.532;2023-08-24T07:35:43;10.40;;;8.85;;
15679;SDS011;15488;48.114;11.532;2023-08-24T07:38:11;9.70;;;8.38;;
15679;SDS011;15488;48.114;11.532;2023-08-24T07:40:39;8.80;;;8.07;;
15679;SDS011;15488;48.114;11.532;2023-08-24T07:43:06;8.95;;;8.15;;
15679;SDS011;15488;48.114;11.532;2023-08-24T07:45:33;9.50;;;8.60;;
15679;SDS011;15488;48.114;11.532;2023-08-24T07:48:01;9.40;;;8.50;;
15679;SDS011;15488;48.114;11.532;2023-08-24T07:50:29;9.25;;;8.13;;
15679;SDS011;15488;48.114;11.532;2023-08-24T07:52:58;10.02;;;8.93;;
15679;SDS011;15488;48.114;11.532;2023-08-24T07:55:26;9.13;;;8.32;;
15679;SDS011;15488;48.114;11.532;2023-08-24T07:57:53;9.02;;;8.23;;
15679;SDS011;15488;48.114;11.532;2023-08-24T08:00:21;9.18;;;8.27;;
15679;SDS011;15488;48.114;11.532;2023-08-24T08:02:50;9.20;;;8.40;;
15679;SDS011;15488;48.114;11.532;2023-08-24T08:05:17;12.27;;;8.27;;
15679;SDS011;15488;48.114;11.532;2023-08-24T08:07:45;10.63;;;8.18;;
15679;SDS011;15488;48.114;11.532;2023-08-24T08:10:14;8.60;;;7.80;;
15679;SDS011;15488;48.114;11.532;2023-08-24T08:12:42;9.02;;;8.23;;
15679;SDS011;15488;48.114;11.532;2023-08-24T08:15:10;9.95;;;9.00;;
15679;SDS011;15488;48.114;11.532;2023-08-24T08:17:37;9.85;;;8.85;;
15679;SDS011;15488;48.114;11.532;2023-08-24T08:20:05;9.05;;;8.27;;
15679;SDS011;15488;48.114;11.532;2023-08-24T08:22:33;9.18;;;8.10;;
15679;SDS011;15488;48.114;11.532;2023-08-24T08:25:04;9.35;;;8.40;;
15679;SDS011;15488;48.114;11.532;2023-08-24T08:27:33;9.75;;;8.75;;
15679;SDS011;15488;48.114;11.532;2023-08-24T08:30:01;9.18;;;8.27;;
15679;SDS011;15488;48.114;11.532;2023-08-24T08:32:30;9.65;;;8.85;;
15679;SDS011;15488;48.114;11.532;2023-08-24T08:34:57;9.90;;;8.90;;
15679;SDS011;15488;48.114;11.532;2023-08-24T08:37:26;10.10;;;9.10;;
15679;SDS011;15488;48.114;11.532;2023-08-24T08:39:53;9.63;;;8.63;;
15679;SDS011;15488;48.114;11.532;2023-08-24T08:42:21;9.63;;;8.70;;
15679;SDS011;15488;48.114;11.532;2023-08-24T08:44:50;9.75;;;8.80;;
15679;SDS011;15488;48.114;11.532;2023-08-24T08:47:20;9.63;;;8.73;;
15679;SDS011;15488;48.114;11.532;2023-08-24T08:49:48;11.05;;;8.85;;
15679;SDS011;15488;48.114;11.532;2023-08-24T08:52:16;14.13;;;11.48;;
15679;SDS011;15488;48.114;11.532;2023-08-24T08:54:44;17.52;;;12.07;;
15679;SDS011;15488;48.114;11.532;2023-08-24T08:57:11;27.55;;;17.00;;
15679;SDS011;15488;48.114;11.532;2023-08-24T08:59:41;10.75;;;9.50;;
15679;SDS011;15488;48.114;11.532;2023-08-24T09:02:10;8.80;;;7.90;;
15679;SDS011;15488;48.114;11.532;2023-08-24T09:04:42;10.05;;;9.05;;
15679;SDS011;15488;48.114;11.532;2023-08-24T09:07:12;12.57;;;9.77;;
15679;SDS011;15488;48.114;11.532;2023-08-24T09:09:39;15.18;;;11.00;;
15679;SDS011;15488;48.114;11.532;2023-08-24T09:12:07;11.55;;;10.35;;
15679;SDS011;15488;48.114;11.532;2023-08-24T09:14:35;11.20;;;10.10;;
15679;SDS011;15488;48.114;11.532;2023-08-24T09:17:03;10.30;;;8.45;;
15679;SDS011;15488;48.114;11.532;2023-08-24T09:19:32;12.48;;;10.15;;
15679;SDS011;15488;48.114;11.532;2023-08-24T09:22:03;12.98;;;11.02;;
15679;SDS011;15488;48.114;11.532;2023-08-24T09:24:31;23.80;;;15.68;;
15679;SDS011;15488;48.114;11.532;2023-08-24T09:26:59;8.43;;;7.57;;
15679;SDS011;15488;48.114;11.532;2023-08-24T09:29:40;11.00;;;9.32;;
15679;SDS011;15488;48.114;11.532;2023-08-24T09:32:07;12.95;;;10.07;;
15679;SDS011;15488;48.114;11.532;2023-08-24T09:34:37;10.98;;;9.95;;
15679;SDS011;15488;48.114;11.532;2023-08-24T09:37:04;11.27;;;10.07;;
15679;SDS011;15488;48.114;11.532;2023-08-24T09:39:38;10.95;;;9.32;;
15679;SDS011;15488;48.114;11.532;2023-08-24T09:42:06;8.75;;;7.95;;
15679;SDS011;15488;48.114;11.532;2023-08-24T09:44:33;8.35;;;7.55;;
15679;SDS011;15488;48.114;11.532;2023-08-24T09:47:01;7.97;;;7.28;;
15679;SDS011;15488;48.114;11.532;2023-08-24T09:49:34;8.40;;;7.53;;
15679;SDS011;15488;48.114;11.532;2023-08-24T09:52:05;8.93;;;7.85;;
15679;SDS011;15488;48.114;11.532;2023-08-24T09:54:35;9.00;;;8.07;;
15679;SDS011;15488;48.114;11.532;2023-08-24T09:57:04;8.75;;;7.85;;
15679;SDS011;15488;48.114;11.532;2023-08-24T09:59:34;7.97;;;7.18;;
15679;SDS011;15488;48.114;11.532;2023-08-24T10:02:05;8.05;;;7.22;;
15679;SDS011;15488;48.114;11.532;2023-08-24T10:04:43;7.60;;;6.95;;
15679;SDS011;15488;48.114;11.532;2023-08-24T10:07:13;9.52;;;7.40;;
15679;SDS011;15488;48.114;11.532;2023-08-24T10:09:47;7.75;;;6.95;;
15679;SDS011;15488;48.114;11.532;2023-08-24T10:12:20;7.95;;;7.30;;
15679;SDS011;15488;48.114;11.532;2023-08-24T10:14:53;8.57;;;7.70;;
15679;SDS011;15488;48.114;11.532;2023-08-24T10:17:25;8.32;;;7.53;;
15679;SDS011;15488;48.114;11.532;2023-08-24T10:19:55;8.50;;;7.53;;
15679;SDS011;15488;48.114;11.532;2023-08-24T10:22:26;8.80;;;7.70;;
15679;SDS011;15488;48.114;11.532;2023-08-24T10:24:55;8.75;;;8.05;;
15679;SDS011;15488;48.114;11.532;2023-08-24T10:27:23;8.95;;;8.07;;
15679;SDS011;15488;48.114;11.532;2023-08-24T10:29:51;7.78;;;7.07;;
15679;SDS011;15488;48.114;11.532;2023-08-24T10:32:19;11.55;;;7.15;;
15679;SDS011;15488;48.114;11.532;2023-08-24T10:34:49;8.38;;;7.20;;
15679;SDS011;15488;48.114;11.532;2023-08-24T10:37:22;7.95;;;7.25;;
15679;SDS011;15488;48.114;11.532;2023-08-24T10:39:52;7.85;;;7.07;;
15679;SDS011;15488;48.114;11.532;2023-08-24T10:42:19;7.22;;;6.60;;
15679;SDS011;15488;48.114;11.532;2023-08-24T10:44:47;8.75;;;6.40;;
15679;SDS011;15488;48.114;11.532;2023-08-24T10:47:16;8.18;;;6.22;;
15679;SDS011;15488;48.114;11.532;2023-08-24T10:49:57;7.22;;;6.22;;
15679;SDS011;15488;48.114;11.532;2023-08-24T10:52:30;8.10;;;6.63;;
15679;SDS011;15488;48.114;11.532;2023-08-24T10:55:00;7.80;;;7.10;;
15679;SDS011;15488;48.114;11.532;2023-08-24T10:57:34;8.43;;;6.80;;
15679;SDS011;15488;48.114;11.532;2023-08-24T11:00:03;8.27;;;7.28;;
15679;SDS011;15488;48.114;11.532;2023-08-24T11:05:19;7.40;;;6.70;;
15679;SDS011;15488;48.114;11.532;2023-08-24T11:07:49;7.00;;;6.30;;
15679;SDS011;15488;48.114;11.532;2023-08-24T11:10:18;8.02;;;6.20;;
15679;SDS011;15488;48.114;11.532;2023-08-24T11:15:34;8.27;;;6.07;;
15679;SDS011;15488;48.114;11.532;2023-08-24T11:18:14;6.25;;;5.75;;
15679;SDS011;15488;48.114;11.532;2023-08-24T11:20:47;6.40;;;5.80;;
15679;SDS011;15488;48.114;11.532;2023-08-24T11:23:18;6.07;;;5.47;;
15679;SDS011;15488;48.114;11.532;2023-08-24T11:25:47;6.80;;;5.95;;
15679;SDS011;15488;48.114;11.532;2023-08-24T11:28:17;6.50;;;5.68;;
15679;SDS011;15488;48.114;11.532;2023-08-24T11:30:45;8.32;;;6.43;;
15679;SDS011;15488;48.114;11.532;2023-08-24T11:33:13;7.82;;;6.40;;
15679;SDS011;15488;48.114;11.532;2023-08-24T11:35:41;7.63;;;6.18;;
15679;SDS011;15488;48.114;11.532;2023-08-24T11:38:10;6.78;;;6.07;;
15679;SDS011;15488;48.114;11.532;2023-08-24T11:40:39;7.90;;;6.20;;
15679;SDS011;15488;48.114;11.532;2023-08-24T11:43:06;7.47;;;5.82;;
15679;SDS011;15488;48.114;11.532;2023-08-24T11:45:35;9.25;;;6.03;;
15679;SDS011;15488;48.114;11.532;2023-08-24T11:48:05;6.28;;;5.60;;
15679;SDS011;15488;48.114;11.532;2023-08-24T11:50:34;7.03;;;5.97;;
15679;SDS011;15488;48.114;11.532;2023-08-24T11:53:05;7.93;;;6.10;;
15679;SDS011;15488;48.114;11.532;2023-08-24T11:55:33;6.00;;;5.50;;
15679;SDS011;15488;48.114;11.532;2023-08-24T11:58:13;7.55;;;5.50;;
15679;SDS011;15488;48.114;11.532;2023-08-24T12:00:41;7.90;;;6.30;;
15679;SDS011;15488;48.114;11.532;2023-08-24T12:03:09;6.88;;;6.15;;
15679;SDS011;15488;48.114;11.532;2023-08-24T12:05:37;6.38;;;5.72;;
15679;SDS011;15488;48.114;11.532;2023-08-24T12:08:05;6.70;;;6.10;;
15679;SDS011;15488;48.114;11.532;2023-08-24T12:10:32;10.68;;;5.28;;
15679;SDS011;15488;48.114;11.532;2023-08-24T12:13:04;9.35;;;5.30;;
15679;SDS011;15488;48.114;11.532;2023-08-24T12:15:33;7.07;;;5.43;;
15679;SDS011;15488;48.114;11.532;2023-08-24T12:18:06;6.40;;;5.80;;
15679;SDS011;15488;48.114;11.532;2023-08-24T12:20:34;8.60;;;5.60;;
15679;SDS011;15488;48.114;11.532;2023-08-24T12:23:02;6.15;;;5.38;;
15679;SDS011;15488;48.114;11.532;2023-08-24T12:25:30;9.73;;;5.40;;
15679;SDS011;15488;48.114;11.532;2023-08-24T12:28:09;7.70;;;5.03;;
15679;SDS011;15488;48.114;11.532;2023-08-24T12:30:44;6.70;;;5.00;;
15679;SDS011;15488;48.114;11.532;2023-08-24T12:33:23;7.00;;;5.05;;
15679;SDS011;15488;48.114;11.532;2023-08-24T12:35:51;9.10;;;5.13;;
15679;SDS011;15488;48.114;11.532;2023-08-24T12:38:20;9.23;;;5.20;;
15679;SDS011;15488;48.114;11.532;2023-08-24T12:40:48;19.73;;;6.20;;
15679;SDS011;15488;48.114;11.532;2023-08-24T12:43:17;9.73;;;5.35;;
15679;SDS011;15488;48.114;11.532;2023-08-24T12:45:46;8.48;;;4.90;;
15679;SDS011;15488;48.114;11.532;2023-08-24T12:48:14;9.05;;;4.90;;
15679;SDS011;15488;48.114;11.532;2023-08-24T12:50:41;6.65;;;4.57;;
15679;SDS011;15488;48.114;11.532;2023-08-24T12:53:09;6.70;;;5.30;;
15679;SDS011;15488;48.114;11.532;2023-08-24T12:55:38;8.75;;;4.95;;
15679;SDS011;15488;48.114;11.532;2023-08-24T12:58:07;9.07;;;5.45;;
15679;SDS011;15488;48.114;11.532;2023-08-24T13:00:36;7.47;;;5.75;;
15679;SDS011;15488;48.114;11.532;2023-08-24T13:03:03;5.55;;;4.88;;
15679;SDS011;15488;48.114;11.532;2023-08-24T13:05:31;8.30;;;4.95;;
15679;SDS011;15488;48.114;11.532;2023-08-24T13:07:58;8.02;;;5.07;;
15679;SDS011;15488;48.114;11.532;2023-08-24T13:10:26;7.20;;;5.20;;
15679;SDS011;15488;48.114;11.532;2023-08-24T13:12:53;8.32;;;5.47;;
15679;SDS011;15488;48.114;11.532;2023-08-24T13:15:21;7.40;;;5.43;;
15679;SDS011;15488;48.114;11.532;2023-08-24T13:17:50;6.93;;;5.72;;
15679;SDS011;15488;48.114;11.532;2023-08-24T13:20:18;7.35;;;5.35;;
15679;SDS011;15488;48.114;11.532;2023-08-24T13:22:45;8.27;;;5.40;;
15679;SDS011;15488;48.114;11.532;2023-08-24T13:25:13;7.47;;;5.82;;
15679;SDS011;15488;48.114;11.532;2023-08-24T13:27:40;8.43;;;5.32;;
15679;SDS011;15488;48.114;11.532;2023-08-24T13:30:08;8.23;;;5.25;;
15679;SDS011;15488;48.114;11.532;2023-08-24T13:32:35;8.95;;;5.60;;
15679;SDS011;15488;48.114;11.532;2023-08-24T13:35:06;8.68;;;6.00;;
15679;SDS011;15488;48.114;11.532;2023-08-24T13:37:34;7.10;;;5.55;;
15679;SDS011;15488;48.114;11.532;2023-08-24T13:40:02;7.18;;;5.88;;
15679;SDS011;15488;48.114;11.532;2023-08-24T13:42:30;10.38;;;5.72;;
15679;SDS011;15488;48.114;11.532;2023-08-24T13:44:57;10.93;;;6.13;;
15679;SDS011;15488;48.114;11.532;2023-08-24T13:47:25;8.18;;;7.35;;
15679;SDS011;15488;48.114;11.532;2023-08-24T13:49:52;7.35;;;6.65;;
15679;SDS011;15488;48.114;11.532;2023-08-24T13:52:21;7.47;;;6.18;;
15679;SDS011;15488;48.114;11.532;2023-08-24T13:54:48;7.03;;;6.20;;
15679;SDS011;15488;48.114;11.532;2023-08-24T13:57:16;8.57;;;6.78;;
15679;SDS011;15488;48.114;11.532;2023-08-24T13:59:43;7.55;;;6.85;;
15679;SDS011;15488;48.114;11.532;2023-08-24T14:02:11;8.57;;;7.10;;
15679;SDS011;15488;48.114;11.532;2023-08-24T14:04:38;8.90;;;6.88;;
15679;SDS011;15488;48.114;11.532;2023-08-24T14:07:06;7.80;;;6.93;;
15679;SDS011;15488;48.114;11.532;2023-08-24T14:09:35;7.47;;;6.78;;
15679;SDS011;15488;48.114;11.532;2023-08-24T14:12:03;8.30;;;6.82;;
15679;SDS011;15488;48.114;11.532;2023-08-24T14:14:31;8.85;;;7.88;;
15679;SDS011;15488;48.114;11.532;2023-08-24T14:16:58;9.40;;;7.32;;
15679;SDS011;15488;48.114;11.532;2023-08-24T14:19:26;7.90;;;6.72;;
15679;SDS011;15488;48.114;11.532;2023-08-24T14:21:53;8.77;;;7.45;;
15679;SDS011;15488;48.114;11.532;2023-08-24T14:24:23;10.80;;;6.53;;
15679;SDS011;15488;48.114;11.532;2023-08-24T14:26:52;9.63;;;6.68;;
15679;SDS011;15488;48.114;11.532;2023-08-24T14:29:19;7.60;;;6.90;;
15679;SDS011;15488;48.114;11.532;2023-08-24T14:31:46;7.80;;;6.90;;
15679;SDS011;15488;48.114;11.532;2023-08-24T14:34:14;7.45;;;6.75;;
15679;SDS011;15488;48.114;11.532;2023-08-24T14:36:41;7.72;;;6.60;;
15679;SDS011;15488;48.114;11.532;2023-08-24T14:39:09;8.57;;;6.65;;
15679;SDS011;15488;48.114;11.532;2023-08-24T14:41:36;7.93;;;7.13;;
15679;SDS011;15488;48.114;11.532;2023-08-24T14:44:05;8.10;;;7.20;;
15679;SDS011;15488;48.114;11.532;2023-08-24T14:46:33;13.93;;;11.45;;
15679;SDS011;15488;48.114;11.532;2023-08-24T14:49:00;12.30;;;10.63;;
15679;SDS011;15488;48.114;11.532;2023-08-24T14:51:28;9.68;;;8.68;;
15679;SDS011;15488;48.114;11.532;2023-08-24T14:53:55;11.70;;;9.05;;
15679;SDS011;15488;48.114;11.532;2023-08-24T14:56:24;12.02;;;8.57;;
15679;SDS011;15488;48.114;11.532;2023-08-24T14:58:51;12.73;;;8.32;;
15679;SDS011;15488;48.114;11.532;2023-08-24T15:01:21;10.23;;;9.18;;